Weather at Minneapolis-St Paul International/Wold-Chamberlain Airport

Public forecast

Using degrees Fahrenheit for public forecast. Weather courtesy of forecast.io.

Current aviation weather report (METAR) for Minneapolis-St Paul International/Wold-Chamberlain Airport

Retrieved 2020/10/27 05:53 UTC (42 minutes ago):

KMSP 270553Z 00000KT 10SM FEW060 M07/M10 A3036 RMK AO2 SLP296 T10671100 11028 21067 400001067 58001

Aviation forecast (TAF) for Minneapolis-St Paul International/Wold-Chamberlain Airport

Retrieved 2020/10/27 06:22 UTC (13 minutes ago):

TAF KMSP 270520Z 2706/2812 22004KT P6SM FEW050 FM271000 19006KT P6SM FEW250 FM271700 21012G19KT P6SM FEW200 FM280000 21012KT P6SM SCT200 FM280600 23010KT P6SM BKN200 WS020/27040KT